Terminal Aerodrome Forecast
Issued by NWS

Home | Current Version | Previous Version | Text Only | Print | Product List | Glossary On
Versions: 1 2 3 4 5 6 7 8 9 10 11 12 13 14 15 16 17 18 19 20 21 22 23 24 25 26 27 28 29 30 31 32
000
FTUS41 KCTP 290326 AAC
TAFLNS
TAF AMD
KLNS 290326Z 2903/2924 08007KT P6SM -SHRA BKN012 OVC025
      TEMPO 2903/2907 2SM TSRA BR BKN015 OVC035CB
     FM290700 16007KT 5SM -SHRA BR BKN015 OVC025
     FM292000 28008G15KT P6SM BKN035
     FM292300 VRB05KT P6SM SCT030=

USA.gov is the U.S. government's official web portal to all federal, state and local government web resources and services.